sensor_id;sensor_type;location;lat;lon;timestamp;pressure;altitude;pressure_sealevel;temperature
67758;BMP180;54562;47.620;18.786;2022-09-27T00:01:25;97271.60;;;12.70
67758;BMP180;54562;47.620;18.786;2022-09-27T00:04:37;97265.80;;;12.70
67758;BMP180;54562;47.620;18.786;2022-09-27T00:07:47;97262.00;;;12.70
67758;BMP180;54562;47.620;18.786;2022-09-27T00:11:04;97264.00;;;12.70
67758;BMP180;54562;47.620;18.786;2022-09-27T00:14:16;97260.80;;;12.70
67758;BMP180;54562;47.620;18.786;2022-09-27T00:17:25;97254.40;;;12.70
67758;BMP180;54562;47.620;18.786;2022-09-27T00:20:35;97260.40;;;12.70
67758;BMP180;54562;47.620;18.786;2022-09-27T00:23:41;97260.80;;;12.70
67758;BMP180;54562;47.620;18.786;2022-09-27T00:26:50;97262.20;;;12.70
67758;BMP180;54562;47.620;18.786;2022-09-27T00:29:59;97260.20;;;12.72
67758;BMP180;54562;47.620;18.786;2022-09-27T00:33:07;97254.20;;;12.70
67758;BMP180;54562;47.620;18.786;2022-09-27T00:36:15;97251.00;;;12.70
67758;BMP180;54562;47.620;18.786;2022-09-27T00:39:24;97244.40;;;12.70
67758;BMP180;54562;47.620;18.786;2022-09-27T00:42:33;97248.20;;;12.70
67758;BMP180;54562;47.620;18.786;2022-09-27T00:45:42;97241.20;;;12.70
67758;BMP180;54562;47.620;18.786;2022-09-27T00:49:01;97238.00;;;12.70
67758;BMP180;54562;47.620;18.786;2022-09-27T00:52:20;97232.40;;;12.70
67758;BMP180;54562;47.620;18.786;2022-09-27T00:55:34;97229.20;;;12.70
67758;BMP180;54562;47.620;18.786;2022-09-27T00:58:49;97223.40;;;12.70
67758;BMP180;54562;47.620;18.786;2022-09-27T01:02:00;97219.40;;;12.70
67758;BMP180;54562;47.620;18.786;2022-09-27T01:05:13;97217.00;;;12.70
67758;BMP180;54562;47.620;18.786;2022-09-27T01:08:22;97215.60;;;12.70
67758;BMP180;54562;47.620;18.786;2022-09-27T01:11:47;97215.80;;;12.68
67758;BMP180;54562;47.620;18.786;2022-09-27T01:15:15;97211.40;;;12.60
67758;BMP180;54562;47.620;18.786;2022-09-27T01:18:33;97212.00;;;12.60
67758;BMP180;54562;47.620;18.786;2022-09-27T01:21:58;97206.20;;;12.60
67758;BMP180;54562;47.620;18.786;2022-09-27T01:25:40;97205.80;;;12.60
67758;BMP180;54562;47.620;18.786;2022-09-27T01:29:06;97204.00;;;12.60
67758;BMP180;54562;47.620;18.786;2022-09-27T01:32:24;97202.00;;;12.60
67758;BMP180;54562;47.620;18.786;2022-09-27T01:35:50;97193.00;;;12.60
67758;BMP180;54562;47.620;18.786;2022-09-27T01:39:20;97185.00;;;12.60
67758;BMP180;54562;47.620;18.786;2022-09-27T01:42:42;97171.00;;;12.60
67758;BMP180;54562;47.620;18.786;2022-09-27T01:45:58;97167.20;;;12.60
67758;BMP180;54562;47.620;18.786;2022-09-27T01:49:17;97166.60;;;12.50
67758;BMP180;54562;47.620;18.786;2022-09-27T01:52:37;97160.80;;;12.50
67758;BMP180;54562;47.620;18.786;2022-09-27T01:55:48;97150.40;;;12.50
67758;BMP180;54562;47.620;18.786;2022-09-27T01:59:06;97148.40;;;12.44
67758;BMP180;54562;47.620;18.786;2022-09-27T02:02:20;97145.60;;;12.40
67758;BMP180;54562;47.620;18.786;2022-09-27T02:05:36;97144.80;;;12.40
67758;BMP180;54562;47.620;18.786;2022-09-27T02:08:50;97142.40;;;12.40
67758;BMP180;54562;47.620;18.786;2022-09-27T02:12:04;97151.60;;;12.30
67758;BMP180;54562;47.620;18.786;2022-09-27T02:15:15;97150.00;;;12.30
67758;BMP180;54562;47.620;18.786;2022-09-27T02:18:31;97153.80;;;12.20
67758;BMP180;54562;47.620;18.786;2022-09-27T02:21:53;97148.40;;;12.14
67758;BMP180;54562;47.620;18.786;2022-09-27T02:25:12;97150.20;;;12.10
67758;BMP180;54562;47.620;18.786;2022-09-27T02:28:29;97148.80;;;12.00
67758;BMP180;54562;47.620;18.786;2022-09-27T02:31:38;97147.40;;;12.00
67758;BMP180;54562;47.620;18.786;2022-09-27T02:34:47;97143.60;;;11.90
67758;BMP180;54562;47.620;18.786;2022-09-27T02:37:55;97136.00;;;11.90
67758;BMP180;54562;47.620;18.786;2022-09-27T02:41:10;97134.00;;;11.80
67758;BMP180;54562;47.620;18.786;2022-09-27T02:44:20;97134.20;;;11.80
67758;BMP180;54562;47.620;18.786;2022-09-27T02:47:46;97134.20;;;11.70
67758;BMP180;54562;47.620;18.786;2022-09-27T02:51:16;97125.20;;;11.60
67758;BMP180;54562;47.620;18.786;2022-09-27T02:54:49;97122.00;;;11.60
67758;BMP180;54562;47.620;18.786;2022-09-27T02:58:15;97118.40;;;11.50
67758;BMP180;54562;47.620;18.786;2022-09-27T03:01:33;97110.80;;;11.50
67758;BMP180;54562;47.620;18.786;2022-09-27T03:04:50;97115.40;;;11.48
67758;BMP180;54562;47.620;18.786;2022-09-27T03:08:01;97110.60;;;11.40
67758;BMP180;54562;47.620;18.786;2022-09-27T03:11:10;97115.60;;;11.40
67758;BMP180;54562;47.620;18.786;2022-09-27T03:14:19;97116.60;;;11.30
67758;BMP180;54562;47.620;18.786;2022-09-27T03:17:28;97106.60;;;11.30
67758;BMP180;54562;47.620;18.786;2022-09-27T03:20:36;97098.60;;;11.28
67758;BMP180;54562;47.620;18.786;2022-09-27T03:23:44;97100.80;;;11.20
67758;BMP180;54562;47.620;18.786;2022-09-27T03:26:53;97102.80;;;11.10
67758;BMP180;54562;47.620;18.786;2022-09-27T03:30:01;97096.40;;;11.10
67758;BMP180;54562;47.620;18.786;2022-09-27T03:33:10;97093.60;;;11.00
67758;BMP180;54562;47.620;18.786;2022-09-27T03:36:18;97095.00;;;11.00
67758;BMP180;54562;47.620;18.786;2022-09-27T03:39:26;97095.80;;;11.00
67758;BMP180;54562;47.620;18.786;2022-09-27T03:42:35;97094.40;;;11.00
67758;BMP180;54562;47.620;18.786;2022-09-27T03:45:45;97092.40;;;11.00
67758;BMP180;54562;47.620;18.786;2022-09-27T03:48:53;97090.20;;;11.00
67758;BMP180;54562;47.620;18.786;2022-09-27T03:52:02;97085.60;;;11.00
67758;BMP180;54562;47.620;18.786;2022-09-27T03:55:13;97077.00;;;11.00
67758;BMP180;54562;47.620;18.786;2022-09-27T03:58:21;97077.60;;;11.00
67758;BMP180;54562;47.620;18.786;2022-09-27T04:01:29;97085.00;;;11.00
67758;BMP180;54562;47.620;18.786;2022-09-27T04:04:37;97085.20;;;11.00
67758;BMP180;54562;47.620;18.786;2022-09-27T04:07:49;97087.00;;;11.00
67758;BMP180;54562;47.620;18.786;2022-09-27T04:10:58;97084.60;;;11.00
67758;BMP180;54562;47.620;18.786;2022-09-27T04:14:06;97084.20;;;10.96
67758;BMP180;54562;47.620;18.786;2022-09-27T04:17:18;97079.80;;;10.90
67758;BMP180;54562;47.620;18.786;2022-09-27T04:20:26;97071.00;;;10.90
67758;BMP180;54562;47.620;18.786;2022-09-27T04:23:35;97061.00;;;10.90
67758;BMP180;54562;47.620;18.786;2022-09-27T04:26:44;97055.20;;;10.90
67758;BMP180;54562;47.620;18.786;2022-09-27T04:29:53;97062.60;;;10.82
67758;BMP180;54562;47.620;18.786;2022-09-27T04:33:02;97062.80;;;10.80
67758;BMP180;54562;47.620;18.786;2022-09-27T04:36:16;97056.40;;;10.80
67758;BMP180;54562;47.620;18.786;2022-09-27T04:39:34;97053.80;;;10.80
67758;BMP180;54562;47.620;18.786;2022-09-27T04:42:45;97052.80;;;10.80
67758;BMP180;54562;47.620;18.786;2022-09-27T04:45:53;97053.40;;;10.78
67758;BMP180;54562;47.620;18.786;2022-09-27T04:49:03;97052.40;;;10.78
67758;BMP180;54562;47.620;18.786;2022-09-27T04:52:12;97045.80;;;10.80
67758;BMP180;54562;47.620;18.786;2022-09-27T04:55:22;97049.80;;;10.80
67758;BMP180;54562;47.620;18.786;2022-09-27T04:58:29;97046.60;;;10.80
67758;BMP180;54562;47.620;18.786;2022-09-27T05:01:37;97043.20;;;10.74
67758;BMP180;54562;47.620;18.786;2022-09-27T05:04:45;97039.40;;;10.70
67758;BMP180;54562;47.620;18.786;2022-09-27T05:07:54;97035.60;;;10.70
67758;BMP180;54562;47.620;18.786;2022-09-27T05:11:03;97032.60;;;10.74
67758;BMP180;54562;47.620;18.786;2022-09-27T05:14:11;97038.60;;;10.80
67758;BMP180;54562;47.620;18.786;2022-09-27T05:17:19;97044.20;;;10.80
67758;BMP180;54562;47.620;18.786;2022-09-27T05:20:29;97040.40;;;10.80
67758;BMP180;54562;47.620;18.786;2022-09-27T05:23:38;97047.20;;;10.90
67758;BMP180;54562;47.620;18.786;2022-09-27T05:26:51;97048.00;;;11.00
67758;BMP180;54562;47.620;18.786;2022-09-27T05:30:00;97037.20;;;11.06
67758;BMP180;54562;47.620;18.786;2022-09-27T05:33:08;97027.60;;;11.14
67758;BMP180;54562;47.620;18.786;2022-09-27T05:36:16;97021.40;;;11.30
67758;BMP180;54562;47.620;18.786;2022-09-27T05:39:26;97018.20;;;11.32
67758;BMP180;54562;47.620;18.786;2022-09-27T05:42:36;97012.80;;;11.40
67758;BMP180;54562;47.620;18.786;2022-09-27T05:45:45;97007.60;;;11.40
67758;BMP180;54562;47.620;18.786;2022-09-27T05:48:53;96996.60;;;11.40
67758;BMP180;54562;47.620;18.786;2022-09-27T05:52:02;96997.80;;;11.40
67758;BMP180;54562;47.620;18.786;2022-09-27T05:55:11;96995.60;;;11.34
67758;BMP180;54562;47.620;18.786;2022-09-27T05:58:19;96999.00;;;11.30
67758;BMP180;54562;47.620;18.786;2022-09-27T06:01:28;97001.40;;;11.30
67758;BMP180;54562;47.620;18.786;2022-09-27T06:04:36;97012.40;;;11.30
67758;BMP180;54562;47.620;18.786;2022-09-27T06:07:45;97007.00;;;11.20
67758;BMP180;54562;47.620;18.786;2022-09-27T06:11:03;97010.20;;;11.20
67758;BMP180;54562;47.620;18.786;2022-09-27T06:14:13;97010.00;;;11.30
67758;BMP180;54562;47.620;18.786;2022-09-27T06:17:21;97010.20;;;11.30
67758;BMP180;54562;47.620;18.786;2022-09-27T06:20:29;97014.00;;;11.30
67758;BMP180;54562;47.620;18.786;2022-09-27T06:23:37;97017.20;;;11.30
67758;BMP180;54562;47.620;18.786;2022-09-27T06:26:45;97025.00;;;11.30
67758;BMP180;54562;47.620;18.786;2022-09-27T06:29:53;97024.40;;;11.30
67758;BMP180;54562;47.620;18.786;2022-09-27T06:33:03;97020.40;;;11.30
67758;BMP180;54562;47.620;18.786;2022-09-27T06:36:12;97023.40;;;11.40
67758;BMP180;54562;47.620;18.786;2022-09-27T06:39:20;97020.00;;;11.50
67758;BMP180;54562;47.620;18.786;2022-09-27T06:42:30;97015.60;;;11.60
67758;BMP180;54562;47.620;18.786;2022-09-27T06:45:40;97016.60;;;11.60
67758;BMP180;54562;47.620;18.786;2022-09-27T06:48:48;97022.20;;;11.70
67758;BMP180;54562;47.620;18.786;2022-09-27T06:51:57;97019.40;;;11.70
67758;BMP180;54562;47.620;18.786;2022-09-27T06:55:07;97016.40;;;11.70
67758;BMP180;54562;47.620;18.786;2022-09-27T06:58:17;97010.00;;;11.72
67758;BMP180;54562;47.620;18.786;2022-09-27T07:01:43;97004.00;;;11.78
67758;BMP180;54562;47.620;18.786;2022-09-27T07:04:52;97004.80;;;11.80
67758;BMP180;54562;47.620;18.786;2022-09-27T07:08:00;97001.40;;;11.80
67758;BMP180;54562;47.620;18.786;2022-09-27T07:11:10;97005.60;;;11.90
67758;BMP180;54562;47.620;18.786;2022-09-27T07:14:18;97010.60;;;11.90
67758;BMP180;54562;47.620;18.786;2022-09-27T07:17:27;97019.00;;;12.00
67758;BMP180;54562;47.620;18.786;2022-09-27T07:20:36;97018.40;;;12.02
67758;BMP180;54562;47.620;18.786;2022-09-27T07:23:46;97024.60;;;12.10
67758;BMP180;54562;47.620;18.786;2022-09-27T07:26:55;97027.00;;;12.08
67758;BMP180;54562;47.620;18.786;2022-09-27T07:30:04;97027.60;;;12.10
67758;BMP180;54562;47.620;18.786;2022-09-27T07:33:13;97032.40;;;12.10
67758;BMP180;54562;47.620;18.786;2022-09-27T07:36:22;97033.20;;;12.10
67758;BMP180;54562;47.620;18.786;2022-09-27T07:39:32;97033.60;;;12.20
67758;BMP180;54562;47.620;18.786;2022-09-27T07:42:41;97032.20;;;12.20
67758;BMP180;54562;47.620;18.786;2022-09-27T07:45:50;97024.20;;;12.30
67758;BMP180;54562;47.620;18.786;2022-09-27T07:48:58;97023.80;;;12.50
67758;BMP180;54562;47.620;18.786;2022-09-27T07:52:07;97026.80;;;12.74
67758;BMP180;54562;47.620;18.786;2022-09-27T07:55:18;97018.80;;;12.90
67758;BMP180;54562;47.620;18.786;2022-09-27T08:01:38;97008.60;;;13.10
67758;BMP180;54562;47.620;18.786;2022-09-27T08:04:46;97005.20;;;13.20
67758;BMP180;54562;47.620;18.786;2022-09-27T08:07:58;97006.40;;;13.36
67758;BMP180;54562;47.620;18.786;2022-09-27T08:11:15;97005.00;;;13.48
67758;BMP180;54562;47.620;18.786;2022-09-27T08:14:25;96993.20;;;13.50
67758;BMP180;54562;47.620;18.786;2022-09-27T08:17:34;97002.40;;;13.80
67758;BMP180;54562;47.620;18.786;2022-09-27T08:20:43;96999.40;;;14.00
67758;BMP180;54562;47.620;18.786;2022-09-27T08:23:52;97000.80;;;14.10
67758;BMP180;54562;47.620;18.786;2022-09-27T08:27:02;96995.80;;;14.30
67758;BMP180;54562;47.620;18.786;2022-09-27T08:30:17;96995.80;;;14.18
67758;BMP180;54562;47.620;18.786;2022-09-27T08:33:26;96991.00;;;14.00
67758;BMP180;54562;47.620;18.786;2022-09-27T08:36:40;96987.80;;;13.90
67758;BMP180;54562;47.620;18.786;2022-09-27T08:39:50;96986.40;;;13.70
67758;BMP180;54562;47.620;18.786;2022-09-27T08:43:08;96987.80;;;13.60
67758;BMP180;54562;47.620;18.786;2022-09-27T08:46:35;96993.00;;;13.50
67758;BMP180;54562;47.620;18.786;2022-09-27T08:49:52;96987.80;;;13.50
67758;BMP180;54562;47.620;18.786;2022-09-27T08:53:21;96994.00;;;13.50
67758;BMP180;54562;47.620;18.786;2022-09-27T08:56:32;96989.60;;;13.50
67758;BMP180;54562;47.620;18.786;2022-09-27T08:59:46;96990.00;;;13.50
67758;BMP180;54562;47.620;18.786;2022-09-27T09:02:58;96983.20;;;13.50
67758;BMP180;54562;47.620;18.786;2022-09-27T09:06:21;96980.60;;;13.40
67758;BMP180;54562;47.620;18.786;2022-09-27T09:09:40;96979.40;;;13.40
67758;BMP180;54562;47.620;18.786;2022-09-27T09:13:07;96967.00;;;13.40
67758;BMP180;54562;47.620;18.786;2022-09-27T09:16:33;96974.80;;;13.40
67758;BMP180;54562;47.620;18.786;2022-09-27T09:20:14;96965.60;;;13.40
67758;BMP180;54562;47.620;18.786;2022-09-27T09:27:26;96961.20;;;13.42
67758;BMP180;54562;47.620;18.786;2022-09-27T09:30:51;96963.80;;;13.42
67758;BMP180;54562;47.620;18.786;2022-09-27T09:34:11;96960.60;;;13.50
67758;BMP180;54562;47.620;18.786;2022-09-27T09:37:34;96954.60;;;13.50
67758;BMP180;54562;47.620;18.786;2022-09-27T09:40:48;96947.60;;;13.50
67758;BMP180;54562;47.620;18.786;2022-09-27T09:44:03;96949.40;;;13.50
67758;BMP180;54562;47.620;18.786;2022-09-27T09:47:24;96952.80;;;13.56
67758;BMP180;54562;47.620;18.786;2022-09-27T09:50:42;96947.40;;;13.58
67758;BMP180;54562;47.620;18.786;2022-09-27T09:53:57;96952.00;;;13.60
67758;BMP180;54562;47.620;18.786;2022-09-27T09:57:17;96950.00;;;13.60
67758;BMP180;54562;47.620;18.786;2022-09-27T10:00:28;96949.20;;;13.70
67758;BMP180;54562;47.620;18.786;2022-09-27T10:03:38;96953.00;;;13.70
67758;BMP180;54562;47.620;18.786;2022-09-27T10:06:46;96954.60;;;13.80
67758;BMP180;54562;47.620;18.786;2022-09-27T10:10:00;96949.00;;;13.80
67758;BMP180;54562;47.620;18.786;2022-09-27T10:13:17;96945.20;;;13.78
67758;BMP180;54562;47.620;18.786;2022-09-27T10:16:28;96946.60;;;13.80
67758;BMP180;54562;47.620;18.786;2022-09-27T10:19:38;96939.60;;;13.80
67758;BMP180;54562;47.620;18.786;2022-09-27T10:22:54;96935.60;;;13.90
67758;BMP180;54562;47.620;18.786;2022-09-27T10:26:06;96934.80;;;14.00
67758;BMP180;54562;47.620;18.786;2022-09-27T10:29:27;96932.20;;;14.10
67758;BMP180;54562;47.620;18.786;2022-09-27T10:32:44;96924.60;;;14.30
67758;BMP180;54562;47.620;18.786;2022-09-27T10:35:57;96929.40;;;14.30
67758;BMP180;54562;47.620;18.786;2022-09-27T10:39:18;96928.40;;;14.32
67758;BMP180;54562;47.620;18.786;2022-09-27T10:42:36;96920.00;;;14.30
67758;BMP180;54562;47.620;18.786;2022-09-27T10:45:46;96918.60;;;14.30
67758;BMP180;54562;47.620;18.786;2022-09-27T10:49:21;96915.80;;;14.30
67758;BMP180;54562;47.620;18.786;2022-09-27T10:52:32;96910.20;;;14.30
67758;BMP180;54562;47.620;18.786;2022-09-27T10:55:47;96906.60;;;14.30
67758;BMP180;54562;47.620;18.786;2022-09-27T10:58:59;96904.00;;;14.30
67758;BMP180;54562;47.620;18.786;2022-09-27T11:02:22;96905.20;;;14.30
67758;BMP180;54562;47.620;18.786;2022-09-27T11:05:37;96911.80;;;14.40
67758;BMP180;54562;47.620;18.786;2022-09-27T11:08:46;96903.80;;;14.46
67758;BMP180;54562;47.620;18.786;2022-09-27T11:12:11;96901.80;;;14.60
67758;BMP180;54562;47.620;18.786;2022-09-27T11:15:20;96892.20;;;14.66
67758;BMP180;54562;47.620;18.786;2022-09-27T11:18:41;96894.40;;;14.80
67758;BMP180;54562;47.620;18.786;2022-09-27T11:21:58;96884.40;;;14.90
67758;BMP180;54562;47.620;18.786;2022-09-27T11:25:27;96875.80;;;15.00
67758;BMP180;54562;47.620;18.786;2022-09-27T11:28:53;96874.20;;;15.00
67758;BMP180;54562;47.620;18.786;2022-09-27T11:32:22;96874.40;;;15.00
67758;BMP180;54562;47.620;18.786;2022-09-27T11:35:52;96867.80;;;15.00
67758;BMP180;54562;47.620;18.786;2022-09-27T11:39:09;96868.60;;;14.96
67758;BMP180;54562;47.620;18.786;2022-09-27T11:42:59;96870.80;;;14.90
67758;BMP180;54562;47.620;18.786;2022-09-27T11:50:13;96857.20;;;14.90
67758;BMP180;54562;47.620;18.786;2022-09-27T11:53:38;96849.40;;;14.92
67758;BMP180;54562;47.620;18.786;2022-09-27T11:57:01;96847.80;;;15.00
67758;BMP180;54562;47.620;18.786;2022-09-27T12:00:21;96835.80;;;15.06
67758;BMP180;54562;47.620;18.786;2022-09-27T12:08:21;96829.20;;;15.40
67758;BMP180;54562;47.620;18.786;2022-09-27T12:11:42;96825.20;;;15.40
67758;BMP180;54562;47.620;18.786;2022-09-27T12:14:54;96827.80;;;15.48
67758;BMP180;54562;47.620;18.786;2022-09-27T12:18:28;96825.00;;;15.50
67758;BMP180;54562;47.620;18.786;2022-09-27T12:21:39;96821.40;;;15.50
67758;BMP180;54562;47.620;18.786;2022-09-27T12:24:50;96815.20;;;15.58
67758;BMP180;54562;47.620;18.786;2022-09-27T12:28:06;96812.00;;;15.70
67758;BMP180;54562;47.620;18.786;2022-09-27T12:31:29;96805.20;;;16.00
67758;BMP180;54562;47.620;18.786;2022-09-27T12:34:45;96808.00;;;16.20
67758;BMP180;54562;47.620;18.786;2022-09-27T12:37:58;96808.60;;;16.20
67758;BMP180;54562;47.620;18.786;2022-09-27T12:41:12;96807.00;;;16.10
67758;BMP180;54562;47.620;18.786;2022-09-27T12:44:22;96806.60;;;16.00
67758;BMP180;54562;47.620;18.786;2022-09-27T12:47:48;96806.00;;;15.94
67758;BMP180;54562;47.620;18.786;2022-09-27T12:51:07;96797.80;;;15.90
67758;BMP180;54562;47.620;18.786;2022-09-27T12:54:56;96796.20;;;15.80
67758;BMP180;54562;47.620;18.786;2022-09-27T12:59:05;96789.60;;;15.70
67758;BMP180;54562;47.620;18.786;2022-09-27T13:02:55;96791.80;;;15.60
67758;BMP180;54562;47.620;18.786;2022-09-27T13:06:44;96785.80;;;15.50
67758;BMP180;54562;47.620;18.786;2022-09-27T13:10:25;96785.20;;;15.40
67758;BMP180;54562;47.620;18.786;2022-09-27T13:13:40;96780.40;;;15.40
67758;BMP180;54562;47.620;18.786;2022-09-27T13:16:50;96784.40;;;15.36
67758;BMP180;54562;47.620;18.786;2022-09-27T13:19:59;96787.80;;;15.30
67758;BMP180;54562;47.620;18.786;2022-09-27T13:24:00;96780.00;;;15.30
67758;BMP180;54562;47.620;18.786;2022-09-27T13:27:39;96791.80;;;15.30
67758;BMP180;54562;47.620;18.786;2022-09-27T13:30:48;96813.20;;;15.20
67758;BMP180;54562;47.620;18.786;2022-09-27T13:33:57;96832.00;;;15.20
67758;BMP180;54562;47.620;18.786;2022-09-27T13:37:47;96822.80;;;14.90
67758;BMP180;54562;47.620;18.786;2022-09-27T13:41:16;96840.80;;;14.42
67758;BMP180;54562;47.620;18.786;2022-09-27T13:44:37;96857.20;;;14.00
67758;BMP180;54562;47.620;18.786;2022-09-27T13:47:50;96860.20;;;13.60
67758;BMP180;54562;47.620;18.786;2022-09-27T13:51:13;96860.40;;;13.40
67758;BMP180;54562;47.620;18.786;2022-09-27T13:54:50;96863.40;;;13.20
67758;BMP180;54562;47.620;18.786;2022-09-27T13:58:02;96869.00;;;13.10
67758;BMP180;54562;47.620;18.786;2022-09-27T14:01:27;96871.60;;;13.00
67758;BMP180;54562;47.620;18.786;2022-09-27T14:04:47;96872.20;;;12.94
67758;BMP180;54562;47.620;18.786;2022-09-27T14:08:02;96877.20;;;12.90
67758;BMP180;54562;47.620;18.786;2022-09-27T14:11:18;96875.20;;;12.84
67758;BMP180;54562;47.620;18.786;2022-09-27T14:14:31;96874.00;;;12.80
67758;BMP180;54562;47.620;18.786;2022-09-27T14:17:46;96869.20;;;12.74
67758;BMP180;54562;47.620;18.786;2022-09-27T14:21:18;96867.60;;;12.70
67758;BMP180;54562;47.620;18.786;2022-09-27T14:24:42;96871.80;;;12.60
67758;BMP180;54562;47.620;18.786;2022-09-27T14:27:53;96865.00;;;12.60
67758;BMP180;54562;47.620;18.786;2022-09-27T14:31:17;96857.00;;;12.64
67758;BMP180;54562;47.620;18.786;2022-09-27T14:34:30;96854.60;;;12.70
67758;BMP180;54562;47.620;18.786;2022-09-27T14:37:38;96855.00;;;12.70
67758;BMP180;54562;47.620;18.786;2022-09-27T14:41:00;96861.20;;;12.62
67758;BMP180;54562;47.620;18.786;2022-09-27T14:44:17;96870.00;;;12.50
67758;BMP180;54562;47.620;18.786;2022-09-27T14:47:31;96876.20;;;12.40
67758;BMP180;54562;47.620;18.786;2022-09-27T14:50:54;96881.80;;;12.40
67758;BMP180;54562;47.620;18.786;2022-09-27T14:54:23;96877.60;;;12.30
67758;BMP180;54562;47.620;18.786;2022-09-27T14:57:35;96881.00;;;12.30
67758;BMP180;54562;47.620;18.786;2022-09-27T15:00:48;96885.20;;;12.20
67758;BMP180;54562;47.620;18.786;2022-09-27T15:04:04;96875.60;;;12.20
67758;BMP180;54562;47.620;18.786;2022-09-27T15:07:13;96875.40;;;12.20
67758;BMP180;54562;47.620;18.786;2022-09-27T15:10:22;96873.80;;;12.10
67758;BMP180;54562;47.620;18.786;2022-09-27T15:13:33;96888.80;;;12.10
67758;BMP180;54562;47.620;18.786;2022-09-27T15:16:43;96898.20;;;12.00
67758;BMP180;54562;47.620;18.786;2022-09-27T15:20:17;96896.00;;;12.00
67758;BMP180;54562;47.620;18.786;2022-09-27T15:23:33;96898.00;;;11.90
67758;BMP180;54562;47.620;18.786;2022-09-27T15:26:45;96901.80;;;11.90
67758;BMP180;54562;47.620;18.786;2022-09-27T15:29:56;96906.40;;;11.90
67758;BMP180;54562;47.620;18.786;2022-09-27T15:33:21;96908.80;;;11.90
67758;BMP180;54562;47.620;18.786;2022-09-27T15:37:00;96906.80;;;11.90
67758;BMP180;54562;47.620;18.786;2022-09-27T15:44:38;96910.40;;;11.90
67758;BMP180;54562;47.620;18.786;2022-09-27T15:47:53;96910.40;;;11.80
67758;BMP180;54562;47.620;18.786;2022-09-27T15:51:02;96915.00;;;11.76
67758;BMP180;54562;47.620;18.786;2022-09-27T15:54:10;96915.00;;;11.70
67758;BMP180;54562;47.620;18.786;2022-09-27T15:57:18;96912.20;;;11.60
67758;BMP180;54562;47.620;18.786;2022-09-27T16:00:29;96914.20;;;11.58
67758;BMP180;54562;47.620;18.786;2022-09-27T16:03:39;96918.40;;;11.50
67758;BMP180;54562;47.620;18.786;2022-09-27T16:06:48;96911.80;;;11.50
67758;BMP180;54562;47.620;18.786;2022-09-27T16:09:57;96906.80;;;11.40
67758;BMP180;54562;47.620;18.786;2022-09-27T16:13:05;96911.00;;;11.40
67758;BMP180;54562;47.620;18.786;2022-09-27T16:16:19;96918.60;;;11.30
67758;BMP180;54562;47.620;18.786;2022-09-27T16:19:30;96931.80;;;11.30
67758;BMP180;54562;47.620;18.786;2022-09-27T16:22:40;96937.40;;;11.30
67758;BMP180;54562;47.620;18.786;2022-09-27T16:25:53;96935.60;;;11.30
67758;BMP180;54562;47.620;18.786;2022-09-27T16:29:04;96936.00;;;11.30
67758;BMP180;54562;47.620;18.786;2022-09-27T16:32:15;96941.00;;;11.30
67758;BMP180;54562;47.620;18.786;2022-09-27T16:35:27;96934.40;;;11.30
67758;BMP180;54562;47.620;18.786;2022-09-27T16:38:39;96935.40;;;11.30
67758;BMP180;54562;47.620;18.786;2022-09-27T16:41:49;96934.40;;;11.30
67758;BMP180;54562;47.620;18.786;2022-09-27T16:44:58;96931.00;;;11.30
67758;BMP180;54562;47.620;18.786;2022-09-27T16:48:14;96944.60;;;11.30
67758;BMP180;54562;47.620;18.786;2022-09-27T16:51:23;96946.40;;;11.30
67758;BMP180;54562;47.620;18.786;2022-09-27T16:54:48;96943.40;;;11.30
67758;BMP180;54562;47.620;18.786;2022-09-27T16:57:59;96948.20;;;11.30
67758;BMP180;54562;47.620;18.786;2022-09-27T17:01:09;96955.00;;;11.30
67758;BMP180;54562;47.620;18.786;2022-09-27T17:04:17;96958.80;;;11.30
67758;BMP180;54562;47.620;18.786;2022-09-27T17:07:26;96964.40;;;11.30
67758;BMP180;54562;47.620;18.786;2022-09-27T17:10:33;96973.00;;;11.30
67758;BMP180;54562;47.620;18.786;2022-09-27T17:13:45;96971.80;;;11.30
67758;BMP180;54562;47.620;18.786;2022-09-27T17:16:55;96967.80;;;11.20
67758;BMP180;54562;47.620;18.786;2022-09-27T17:20:04;96969.80;;;11.20
67758;BMP180;54562;47.620;18.786;2022-09-27T17:23:12;96974.80;;;11.20
67758;BMP180;54562;47.620;18.786;2022-09-27T17:26:23;96984.20;;;11.20
67758;BMP180;54562;47.620;18.786;2022-09-27T17:29:32;96982.40;;;11.20
67758;BMP180;54562;47.620;18.786;2022-09-27T17:32:40;96988.60;;;11.18
67758;BMP180;54562;47.620;18.786;2022-09-27T17:35:58;96994.20;;;11.14
67758;BMP180;54562;47.620;18.786;2022-09-27T17:39:08;96992.40;;;11.10
67758;BMP180;54562;47.620;18.786;2022-09-27T17:42:18;96989.80;;;11.10
67758;BMP180;54562;47.620;18.786;2022-09-27T17:45:26;96987.20;;;11.18
67758;BMP180;54562;47.620;18.786;2022-09-27T17:48:35;96981.80;;;11.20
67758;BMP180;54562;47.620;18.786;2022-09-27T17:52:01;96975.40;;;11.18
67758;BMP180;54562;47.620;18.786;2022-09-27T17:55:11;96974.60;;;11.12
67758;BMP180;54562;47.620;18.786;2022-09-27T17:58:20;96982.20;;;11.10
67758;BMP180;54562;47.620;18.786;2022-09-27T18:01:28;96988.00;;;11.10
67758;BMP180;54562;47.620;18.786;2022-09-27T18:04:36;96985.80;;;11.10
67758;BMP180;54562;47.620;18.786;2022-09-27T18:07:45;96980.40;;;11.10
67758;BMP180;54562;47.620;18.786;2022-09-27T18:10:53;96986.00;;;11.10
67758;BMP180;54562;47.620;18.786;2022-09-27T18:14:02;96993.80;;;11.10
67758;BMP180;54562;47.620;18.786;2022-09-27T18:17:10;96994.80;;;11.10
67758;BMP180;54562;47.620;18.786;2022-09-27T18:20:19;97003.60;;;11.10
67758;BMP180;54562;47.620;18.786;2022-09-27T18:23:29;97017.40;;;11.10
67758;BMP180;54562;47.620;18.786;2022-09-27T18:26:38;97024.80;;;11.10
67758;BMP180;54562;47.620;18.786;2022-09-27T18:29:46;97028.60;;;11.10
67758;BMP180;54562;47.620;18.786;2022-09-27T18:32:54;97033.20;;;11.10
67758;BMP180;54562;47.620;18.786;2022-09-27T18:36:08;97034.20;;;11.10
67758;BMP180;54562;47.620;18.786;2022-09-27T18:39:19;97018.40;;;11.10
67758;BMP180;54562;47.620;18.786;2022-09-27T18:42:27;97021.60;;;11.10
67758;BMP180;54562;47.620;18.786;2022-09-27T18:45:38;97018.20;;;11.06